Meacham, OR

1:37 AM PST on December 09, 2016 (GMT -0800)
Meacham | | Change Station
Active Advisory: Winter Weather Advisory

Elev 3720 ft 45.51 °N, 118.42 °W | Updated 41 minutes ago

Overcast
Overcast
24 °F
Feels Like 24 °F
N
0
Wind Variable Wind from North

Today
High -- | Low -- °F
--% Chance of Precip.
Yesterday
High -- | Low -- °F
Precip. -- in
Pressure 30.10 in
Visibility 5.0 miles
Clouds Overcast 3200 ft
Dew Point 19 °F
Humidity 81%
Rainfall 0.00 in
Snow Depth Not available.
7:22 AM 4:10 PM
Waxing Gibbous, 72% visible
METAR KMEH 090856Z AUTO 00000KT 5SM -SN OVC032 M04/M07 A2998 RMK AO2 SNB40 SLP191 P0000 60000 T10441072 51012
Pressure 30.10 in
Visibility 5.0 miles
Clouds Overcast 3200 ft
Dew Point 19 °F
Humidity 81%
Rainfall 0.00 in
Snow Depth Not available.
7:22 AM 4:10 PM
Waxing Gibbous, 72% visible
METAR KMEH 090856Z AUTO 00000KT 5SM -SN OVC032 M04/M07 A2998 RMK AO2 SNB40 SLP191 P0000 60000 T10441072 51012

10-Day Weather Forecast

Almanac

Astronomy

Dec. 09, 2016 Rise Set
Actual Time
Civil Twilight
Nautical Twilight
Astronomical Twilight
Moon
Length of Visible Light
Length of Day
Tomorrow will be .
, % of the Moon is Illuminated

Today's Extremes

State Highs State Lows

Community

WunderPhotos

Upload Photos

1,956,371 photos uploaded!

WunderBlog® & News

Nearby

Air Quality

  Air Quality AQ Index Pollutant
Not available.

Snow Depth

Station Depth Elevation

Earthquake Activity

City Distance Mag. Time & Date
Minimum magnitude displayed is 2.5.

Coastal Water Temperatures

Place Temperature

Stations

Nearby Weather Stations

Station Location Temp. Windchill Dew Point Humidity Wind Precip. Elev Updated Type
                   

Watches & Warnings

Winter Weather Advisory
Issued: 10:20 PM PST Dec. 8, 2016 – National Weather Service

... Winter Weather Advisory remains in effect until 4 am PST
Saturday...

* locations... Meacham... Tollgate... ski bluewood resort.

* Snow accumulations... an additional 4 to 7 inches.

* Timing... occasional snow will continue overnight into Friday
and Saturday.

* Impacts... area roadways will be snow covered and slick.

* Winds... southwest 5 to 15 mph with gusts up to 30 mph.

* Web page: for a detailed view of the hazard area visit
http://www.Wrh.NOAA.Gov/map/?Wfo=pdt.

Precautionary/preparedness actions... a Winter Weather Advisory
for snow means that periods of snow will cause primarily travel
difficulties. Be prepared for snow covered roads and limited
visibilities... and use caution while driving.